Time;durP1;ratioP1;P1;durP2;ratioP2;P2;SDS_P1;SDS_P2;PMS_P1;PMS_P2;Temp;Humidity;BMP_temperature;BMP_pressure;BME280_temperature;BME280_humidity;BME280_pressure;Samples;Min_cycle;Max_cycle;Signal;HPM_P1;HPM_P2
2023/06/28 00:00:10;;;;;;;3.20;1.10;;;23.40;58.20;;;;;;10060864;28;20515;-60
2023/06/28 00:05:07;;;;;;;3.78;1.25;;;23.50;58.10;;;;;;10085940;28;20110;-63
2023/06/28 00:09:58;;;;;;;4.13;1.50;;;23.50;58.30;;;;;;10073331;28;20039;-61
2023/06/28 00:14:48;;;;;;;3.78;1.20;;;23.40;58.30;;;;;;10071196;28;20112;-61
2023/06/28 00:19:47;;;;;;;4.45;2.40;;;23.50;58.40;;;;;;10067910;28;20048;-61
2023/06/28 00:24:38;;;;;;;4.47;1.77;;;23.90;58.10;;;;;;10065127;28;20079;-61
2023/06/28 00:29:28;;;;;;;6.75;1.88;;;23.70;58.20;;;;;;10059095;28;20433;-61
2023/06/28 00:34:19;;;;;;;7.07;1.83;;;23.50;58.70;;;;;;10070788;28;20283;-61
2023/06/28 00:39:09;;;;;;;5.60;1.73;;;23.70;58.70;;;;;;10080409;28;20569;-60
2023/06/28 00:44:00;;;;;;;2.97;1.60;;;23.80;58.50;;;;;;10071601;28;20029;-62
2023/06/28 00:48:51;;;;;;;4.50;1.48;;;23.50;58.80;;;;;;10072015;28;20259;-61
2023/06/28 00:53:41;;;;;;;2.53;1.15;;;23.50;58.90;;;;;;10068586;28;20169;-61
2023/06/28 00:58:32;;;;;;;1.73;1.20;;;23.50;59.10;;;;;;10055030;28;20044;-61
2023/06/28 01:03:23;;;;;;;3.97;1.02;;;23.50;59.30;;;;;;10063199;28;20053;-61
2023/06/28 01:08:14;;;;;;;3.00;1.20;;;23.60;59.30;;;;;;10064102;28;20029;-61
2023/06/28 01:13:05;;;;;;;4.30;1.30;;;23.40;59.50;;;;;;10070417;28;20495;-61
2023/06/28 01:17:56;;;;;;;5.55;1.83;;;23.30;59.90;;;;;;10066633;28;20044;-61
2023/06/28 01:22:54;;;;;;;2.05;1.15;;;23.30;59.80;;;;;;10060838;28;20033;-62
2023/06/28 01:27:46;;;;;;;4.53;1.38;;;23.30;60.20;;;;;;10034361;28;20499;-61
2023/06/28 01:32:37;;;;;;;2.13;1.38;;;23.40;60.20;;;;;;10081311;28;20033;-61
2023/06/28 01:37:28;;;;;;;2.22;1.73;;;23.40;60.30;;;;;;10072259;28;20041;-62
2023/06/28 01:42:19;;;;;;;3.78;1.35;;;23.20;60.40;;;;;;10065105;28;20029;-62
2023/06/28 01:47:09;;;;;;;3.40;1.20;;;23.10;60.80;;;;;;10067791;28;20069;-61
2023/06/28 01:52:00;;;;;;;3.00;1.10;;;22.90;61.20;;;;;;10063260;28;20044;-61
2023/06/28 01:56:51;;;;;;;3.97;2.08;;;23.00;61.30;;;;;;10060187;28;20030;-61
2023/06/28 02:01:44;;;;;;;6.22;1.30;;;23.00;61.30;;;;;;10055509;28;20038;-61
2023/06/28 02:06:38;;;;;;;2.92;0.90;;;22.90;61.50;;;;;;10068798;28;20575;-61
2023/06/28 02:11:29;;;;;;;3.97;1.23;;;22.80;61.90;;;;;;10075106;28;20067;-61
2023/06/28 02:16:22;;;;;;;5.18;1.70;;;22.70;62.00;;;;;;10070233;28;20615;-61
2023/06/28 02:21:14;;;;;;;2.40;1.45;;;23.00;61.90;;;;;;10059920;28;20048;-61
2023/06/28 02:26:04;;;;;;;1.15;0.88;;;23.00;62.00;;;;;;10054539;28;20018;-61
2023/06/28 02:30:55;;;;;;;5.38;1.38;;;22.90;62.20;;;;;;10044506;28;20037;-62
2023/06/28 02:35:46;;;;;;;3.10;1.05;;;22.90;62.60;;;;;;10054572;28;20037;-61
2023/06/28 02:40:36;;;;;;;4.93;1.30;;;22.70;63.20;;;;;;10073168;28;20091;-61
2023/06/28 02:45:27;;;;;;;5.43;1.30;;;22.80;63.40;;;;;;10077399;28;20074;-61
2023/06/28 02:50:17;;;;;;;3.05;1.73;;;22.70;63.90;;;;;;10074750;28;20403;-61
2023/06/28 02:55:08;;;;;;;1.90;1.30;;;22.70;64.10;;;;;;10066955;28;20025;-61
2023/06/28 02:59:59;;;;;;;4.85;1.50;;;22.70;64.30;;;;;;10062655;28;20045;-60
2023/06/28 03:04:50;;;;;;;2.25;1.38;;;22.70;64.60;;;;;;10079864;28;20757;-61
2023/06/28 03:09:41;;;;;;;3.50;1.00;;;22.70;64.70;;;;;;10046909;28;20091;-60
2023/06/28 03:14:31;;;;;;;5.00;1.30;;;22.80;64.70;;;;;;10069820;28;20422;-61
2023/06/28 03:19:22;;;;;;;5.70;1.42;;;22.70;64.90;;;;;;10069016;28;20562;-61
2023/06/28 03:24:12;;;;;;;2.65;1.20;;;22.50;65.40;;;;;;10064813;28;20043;-62
2023/06/28 03:29:03;;;;;;;1.92;1.35;;;22.50;65.60;;;;;;10086176;28;20033;-59
2023/06/28 03:33:54;;;;;;;5.25;1.33;;;22.50;65.70;;;;;;10083353;28;20028;-60
2023/06/28 03:38:44;;;;;;;3.25;1.50;;;22.40;66.00;;;;;;10085794;28;20028;-61
2023/06/28 03:43:35;;;;;;;3.92;1.63;;;22.50;66.10;;;;;;10073731;28;20025;-61
2023/06/28 03:48:25;;;;;;;5.60;1.65;;;22.50;66.20;;;;;;10074811;28;20042;-61
2023/06/28 03:53:16;;;;;;;2.72;1.77;;;22.30;66.60;;;;;;10068147;28;20025;-61
2023/06/28 03:58:06;;;;;;;3.42;1.30;;;22.20;66.90;;;;;;10059157;28;20033;-61
2023/06/28 04:02:57;;;;;;;2.58;1.10;;;22.30;67.10;;;;;;10091036;28;20065;-61
2023/06/28 04:07:54;;;;;;;4.90;1.50;;;22.30;67.10;;;;;;10086231;28;20029;-61
2023/06/28 04:12:45;;;;;;;3.75;1.20;;;22.20;67.30;;;;;;10060586;28;20044;-61
2023/06/28 04:17:35;;;;;;;4.85;2.03;;;22.10;67.70;;;;;;10071837;28;20036;-61
2023/06/28 04:22:26;;;;;;;3.03;1.20;;;22.20;67.70;;;;;;10063835;28;20061;-61
2023/06/28 04:27:16;;;;;;;3.50;1.63;;;22.20;67.80;;;;;;10066123;28;20036;-61
2023/06/28 04:32:22;;;;;;;2.95;1.88;;;22.30;67.80;;;;;;10076768;28;20116;-61
2023/06/28 04:37:13;;;;;;;2.90;1.20;;;22.30;68.00;;;;;;10068893;28;20029;-61
2023/06/28 04:42:03;;;;;;;1.77;1.20;;;22.50;67.70;;;;;;10066866;28;20128;-61
2023/06/28 04:46:54;;;;;;;2.92;1.42;;;22.40;68.10;;;;;;10064924;28;20559;-61
2023/06/28 04:51:45;;;;;;;3.97;1.50;;;22.40;68.30;;;;;;10066869;28;20432;-61
2023/06/28 04:56:37;;;;;;;6.40;1.98;;;22.10;68.70;;;;;;10058197;28;20479;-61
2023/06/28 05:01:28;;;;;;;2.03;1.33;;;21.90;69.40;;;;;;10057970;28;20033;-60
2023/06/28 05:06:19;;;;;;;3.40;1.50;;;21.90;69.70;;;;;;10054488;28;20064;-61
2023/06/28 05:11:10;;;;;;;2.08;1.35;;;21.90;69.70;;;;;;10064574;28;20037;-61
2023/06/28 05:16:00;;;;;;;5.80;1.40;;;21.80;69.90;;;;;;10070176;28;20024;-61
2023/06/28 05:20:51;;;;;;;3.10;1.70;;;21.80;70.10;;;;;;10033889;28;20096;-61
2023/06/28 05:25:42;;;;;;;4.60;1.98;;;22.10;69.80;;;;;;10064831;28;20105;-61
2023/06/28 05:30:33;;;;;;;2.20;1.10;;;22.20;69.70;;;;;;10057744;28;20470;-61
2023/06/28 05:35:24;;;;;;;3.58;1.70;;;22.20;70.00;;;;;;10077792;28;20031;-62
2023/06/28 05:40:14;;;;;;;3.85;1.83;;;22.20;70.30;;;;;;10080333;28;20537;-61
2023/06/28 05:45:06;;;;;;;3.45;1.58;;;22.30;69.90;;;;;;10052747;28;20021;-61
2023/06/28 05:49:56;;;;;;;4.15;1.90;;;22.40;70.00;;;;;;10070746;28;20030;-60
2023/06/28 05:54:47;;;;;;;2.80;1.40;;;22.40;70.10;;;;;;10040255;28;20028;-61
2023/06/28 05:59:37;;;;;;;10.18;2.28;;;22.30;70.50;;;;;;10061163;28;20044;-60
2023/06/28 06:04:28;;;;;;;4.45;2.50;;;22.50;70.50;;;;;;10060161;28;20045;-61
2023/06/28 06:09:20;;;;;;;5.20;2.75;;;22.70;70.20;;;;;;10078313;28;20036;-61
2023/06/28 06:14:11;;;;;;;3.55;2.00;;;22.80;70.10;;;;;;10072774;28;20029;-61
2023/06/28 06:19:02;;;;;;;7.35;2.45;;;22.90;70.20;;;;;;10070846;28;20675;-61
2023/06/28 06:23:52;;;;;;;3.45;1.75;;;23.00;70.20;;;;;;10065362;28;20099;-61
2023/06/28 06:28:43;;;;;;;4.38;1.95;;;22.80;70.30;;;;;;10052945;28;20025;-61
2023/06/28 06:33:35;;;;;;;4.03;1.60;;;22.80;70.40;;;;;;10053248;28;20017;-58
2023/06/28 06:38:25;;;;;;;5.60;2.45;;;22.80;70.60;;;;;;10057695;28;20057;-59
2023/06/28 06:43:16;;;;;;;6.30;2.58;;;22.90;70.50;;;;;;10039201;28;20507;-58
2023/06/28 06:48:07;;;;;;;6.25;2.30;;;23.00;70.50;;;;;;10066740;28;20025;-54
2023/06/28 06:52:57;;;;;;;3.00;1.92;;;23.10;70.30;;;;;;10055480;28;20033;-58
2023/06/28 06:57:48;;;;;;;4.30;1.73;;;23.20;70.20;;;;;;10061098;28;20108;-54
2023/06/28 07:02:39;;;;;;;4.00;1.38;;;23.20;70.40;;;;;;10059848;28;20196;-56
2023/06/28 07:07:29;;;;;;;6.25;1.98;;;23.00;70.60;;;;;;10061821;28;20618;-52
2023/06/28 07:12:21;;;;;;;6.15;1.65;;;23.30;70.00;;;;;;10048164;28;20327;-56
2023/06/28 07:17:12;;;;;;;6.82;2.00;;;23.70;69.40;;;;;;10038479;28;20044;-54
2023/06/28 07:22:03;;;;;;;3.28;1.95;;;23.90;69.30;;;;;;10061933;28;20041;-57
2023/06/28 07:26:53;;;;;;;3.60;1.60;;;23.90;68.90;;;;;;10072895;28;20040;-58
2023/06/28 07:31:44;;;;;;;4.35;1.55;;;23.80;69.30;;;;;;10065276;28;20022;-56
2023/06/28 07:36:34;;;;;;;5.55;1.92;;;23.90;69.00;;;;;;10070534;28;20029;-59
2023/06/28 07:41:25;;;;;;;2.85;1.67;;;23.70;68.90;;;;;;10090908;28;20041;-58
2023/06/28 07:46:16;;;;;;;5.90;1.67;;;23.70;69.30;;;;;;10065179;28;20060;-59
2023/06/28 07:51:07;;;;;;;6.18;2.53;;;24.00;69.10;;;;;;10074398;28;20526;-61
2023/06/28 07:55:58;;;;;;;5.22;2.08;;;24.00;69.10;;;;;;10061204;28;20040;-59
2023/06/28 08:00:48;;;;;;;3.22;1.83;;;24.30;68.60;;;;;;10059226;28;20045;-58
2023/06/28 08:05:39;;;;;;;4.32;2.28;;;24.60;68.40;;;;;;10061899;28;20041;-59
2023/06/28 08:10:30;;;;;;;4.05;1.95;;;24.60;68.20;;;;;;10079179;28;20025;-59
2023/06/28 08:15:21;;;;;;;9.77;2.80;;;24.70;68.00;;;;;;10069268;28;20038;-59
2023/06/28 08:20:11;;;;;;;4.95;2.33;;;24.60;68.10;;;;;;10063158;28;20046;-58
2023/06/28 08:25:03;;;;;;;5.43;2.38;;;24.90;67.50;;;;;;10070610;28;20033;-57
2023/06/28 08:29:54;;;;;;;4.40;1.98;;;24.80;67.70;;;;;;10055219;28;20037;-58
2023/06/28 08:34:46;;;;;;;4.22;2.13;;;25.00;67.50;;;;;;10061940;28;20029;-55
2023/06/28 08:39:37;;;;;;;6.53;2.50;;;25.10;67.20;;;;;;10062816;28;20073;-59
2023/06/28 08:44:31;;;;;;;3.78;2.50;;;25.10;67.10;;;;;;10069865;28;20069;-58
2023/06/28 08:49:23;;;;;;;6.38;2.47;;;25.00;67.10;;;;;;10069320;28;20028;-60
2023/06/28 08:54:14;;;;;;;5.05;2.10;;;25.40;66.30;;;;;;10056536;28;20045;-60
2023/06/28 08:59:06;;;;;;;5.35;2.53;;;25.20;66.20;;;;;;10057754;28;20041;-60
2023/06/28 09:03:57;;;;;;;4.15;2.20;;;24.90;66.00;;;;;;10062832;28;20048;-60
2023/06/28 09:08:50;;;;;;;3.17;1.70;;;25.00;65.60;;;;;;10075053;28;20029;-61
2023/06/28 09:13:41;;;;;;;7.65;3.00;;;25.00;65.60;;;;;;10062482;28;20110;-57
2023/06/28 09:18:31;;;;;;;6.57;2.05;;;25.20;65.00;;;;;;10074390;28;20079;-60
2023/06/28 09:23:27;;;;;;;3.80;1.60;;;25.20;64.90;;;;;;10058644;28;20034;-60
2023/06/28 09:28:19;;;;;;;4.95;2.00;;;25.20;64.50;;;;;;10054090;28;20021;-60
2023/06/28 09:33:09;;;;;;;2.28;1.38;;;25.00;64.50;;;;;;10052754;28;20021;-60
2023/06/28 09:38:04;;;;;;;5.38;2.28;;;24.70;64.30;;;;;;10056091;28;20647;-60
2023/06/28 09:42:55;;;;;;;2.42;1.40;;;24.60;64.10;;;;;;10073124;28;20068;-59
2023/06/28 09:47:53;;;;;;;5.40;1.60;;;24.70;63.80;;;;;;10078116;28;20494;-59
2023/06/28 09:52:43;;;;;;;5.63;1.80;;;25.00;63.40;;;;;;10068065;28;20030;-60
2023/06/28 09:57:34;;;;;;;5.45;2.20;;;25.30;63.10;;;;;;10060707;28;20025;-59
2023/06/28 10:02:27;;;;;;;3.70;1.77;;;25.70;62.90;;;;;;10056712;28;20054;-59
2023/06/28 10:07:19;;;;;;;3.35;1.98;;;25.90;62.50;;;;;;10056282;28;20032;-60
2023/06/28 10:12:14;;;;;;;3.63;1.98;;;25.80;62.70;;;;;;10063343;28;20108;-60
2023/06/28 10:17:06;;;;;;;3.53;2.10;;;26.10;62.40;;;;;;10075323;28;20088;-60
2023/06/28 10:21:56;;;;;;;5.53;2.28;;;26.40;62.10;;;;;;10055059;28;20052;-59
2023/06/28 10:26:48;;;;;;;4.07;1.70;;;26.30;61.60;;;;;;10063504;28;20383;-60
2023/06/28 10:31:39;;;;;;;4.38;1.45;;;26.20;61.50;;;;;;10058078;28;20037;-59
2023/06/28 10:36:30;;;;;;;4.38;1.75;;;26.00;61.60;;;;;;10058823;28;20257;-60
2023/06/28 10:41:21;;;;;;;4.55;1.80;;;26.10;61.30;;;;;;10079724;28;20053;-58
2023/06/28 10:46:25;;;;;;;3.25;1.83;;;26.40;61.00;;;;;;10062581;28;20068;-59
2023/06/28 10:51:21;;;;;;;2.58;1.88;;;26.40;60.80;;;;;;10061195;28;20094;-61
2023/06/28 10:56:13;;;;;;;2.53;1.80;;;26.50;60.50;;;;;;10068874;28;20446;-61
2023/06/28 11:01:05;;;;;;;3.45;1.70;;;26.80;60.70;;;;;;10061022;28;20084;-59
2023/06/28 11:05:56;;;;;;;5.57;1.75;;;27.50;60.00;;;;;;10065949;28;20037;-59
2023/06/28 11:10:53;;;;;;;3.45;1.55;;;27.60;59.80;;;;;;10072312;28;20086;-58
2023/06/28 11:15:47;;;;;;;2.63;1.40;;;27.70;59.70;;;;;;10051195;28;20114;-58
2023/06/28 11:20:57;;;;;;;3.28;1.77;;;27.90;59.50;;;;;;10043534;28;20046;-60
2023/06/28 11:25:53;;;;;;;11.73;4.03;;;28.00;59.20;;;;;;10064504;28;20159;-62
2023/06/28 11:30:49;;;;;;;5.03;1.85;;;28.00;59.30;;;;;;10055872;28;20168;-64
2023/06/28 11:35:40;;;;;;;3.22;1.85;;;27.90;59.50;;;;;;10084338;28;20022;-59
2023/06/28 11:40:31;;;;;;;2.75;1.80;;;28.00;59.10;;;;;;10083320;28;20116;-60
2023/06/28 11:45:22;;;;;;;4.35;1.60;;;28.40;59.00;;;;;;10062666;28;20147;-61
2023/06/28 11:50:12;;;;;;;4.18;2.00;;;28.60;58.70;;;;;;10081187;28;20041;-61
2023/06/28 11:55:03;;;;;;;4.43;1.23;;;28.60;58.50;;;;;;10056800;28;20038;-61
2023/06/28 11:59:54;;;;;;;3.30;1.70;;;28.50;58.60;;;;;;10062910;28;20653;-61
2023/06/28 12:04:57;;;;;;;2.10;1.38;;;28.60;58.30;;;;;;10056542;28;20053;-61
2023/06/28 12:09:56;;;;;;;6.45;1.90;;;28.80;58.00;;;;;;10075467;28;20099;-61
2023/06/28 12:14:49;;;;;;;5.43;2.10;;;29.10;57.80;;;;;;10043394;28;20029;-61
2023/06/28 12:19:40;;;;;;;3.92;2.00;;;29.10;57.60;;;;;;10055693;28;20037;-60
2023/06/28 12:24:34;;;;;;;4.80;1.88;;;29.10;57.30;;;;;;10039359;28;20030;-62
2023/06/28 12:29:30;;;;;;;4.70;1.80;;;28.30;57.70;;;;;;10057338;28;20108;-59
2023/06/28 12:34:25;;;;;;;3.95;1.60;;;28.30;57.90;;;;;;10050654;28;20057;-60
2023/06/28 12:39:24;;;;;;;2.38;1.35;;;28.30;57.70;;;;;;10048988;28;20069;-57
2023/06/28 12:44:18;;;;;;;4.20;1.80;;;28.40;57.80;;;;;;10049720;28;20048;-58
2023/06/28 12:49:09;;;;;;;3.63;1.60;;;29.90;57.00;;;;;;10067919;28;20033;-59
2023/06/28 12:53:59;;;;;;;3.15;1.95;;;31.00;56.60;;;;;;10069389;28;20033;-59
2023/06/28 12:58:50;;;;;;;2.10;1.30;;;31.00;56.50;;;;;;10063777;28;20040;-59
2023/06/28 13:03:41;;;;;;;6.00;2.50;;;30.30;56.60;;;;;;10063464;28;20041;-59
2023/06/28 13:08:31;;;;;;;4.68;1.83;;;30.00;56.80;;;;;;10075789;28;20025;-60
2023/06/28 13:13:22;;;;;;;4.65;1.88;;;31.00;56.10;;;;;;10081260;28;20537;-59
2023/06/28 13:18:13;;;;;;;2.42;1.52;;;30.60;55.70;;;;;;10068596;28;20039;-59
2023/06/28 13:23:03;;;;;;;5.65;2.50;;;30.20;55.70;;;;;;10066351;28;20056;-59
2023/06/28 13:27:54;;;;;;;6.40;1.95;;;29.70;56.00;;;;;;10066181;28;20546;-60
2023/06/28 13:32:44;;;;;;;3.67;1.50;;;29.10;56.30;;;;;;10064981;28;20030;-59
2023/06/28 13:37:35;;;;;;;4.07;1.88;;;29.70;56.10;;;;;;10066520;28;20107;-59
2023/06/28 13:42:26;;;;;;;5.95;1.75;;;31.70;55.00;;;;;;10064589;28;20107;-60
2023/06/28 13:47:16;;;;;;;3.25;1.77;;;31.20;54.90;;;;;;10067264;28;20508;-60
2023/06/28 13:52:07;;;;;;;2.00;1.30;;;30.40;55.20;;;;;;10068034;28;20385;-62
2023/06/28 13:56:58;;;;;;;4.57;1.65;;;29.80;55.70;;;;;;10061106;28;20435;-59
2023/06/28 14:01:49;;;;;;;2.40;1.45;;;29.30;56.10;;;;;;10059205;28;20049;-59
2023/06/28 14:06:39;;;;;;;3.70;1.65;;;29.20;56.00;;;;;;10066570;28;20495;-59
2023/06/28 14:11:30;;;;;;;3.03;1.92;;;29.50;55.70;;;;;;10078395;28;20091;-59
2023/06/28 14:16:21;;;;;;;4.00;2.20;;;29.50;55.80;;;;;;10073152;28;20083;-59
2023/06/28 14:21:11;;;;;;;2.63;1.40;;;29.80;55.50;;;;;;10067479;28;20415;-58
2023/06/28 14:26:02;;;;;;;3.05;1.90;;;29.90;55.40;;;;;;10060527;28;20152;-58
2023/06/28 14:30:52;;;;;;;3.33;1.38;;;29.90;55.50;;;;;;10060178;28;20560;-59
2023/06/28 14:35:43;;;;;;;4.30;1.60;;;29.80;55.70;;;;;;10064335;28;20036;-59
2023/06/28 14:40:33;;;;;;;4.13;1.60;;;29.50;55.90;;;;;;10087714;28;20477;-60
2023/06/28 14:45:24;;;;;;;2.80;1.45;;;29.20;56.20;;;;;;10075814;28;20399;-58
2023/06/28 14:50:15;;;;;;;3.45;2.80;;;29.10;56.20;;;;;;10078376;28;20039;-57
2023/06/28 14:55:06;;;;;;;7.03;2.22;;;29.80;55.90;;;;;;10047449;28;20030;-61
2023/06/28 14:59:57;;;;;;;2.70;1.77;;;30.20;55.30;;;;;;10060571;28;20042;-60
2023/06/28 15:04:47;;;;;;;4.18;1.58;;;30.60;55.20;;;;;;10067776;28;20041;-61
2023/06/28 15:09:38;;;;;;;4.82;1.42;;;31.50;54.70;;;;;;10075652;28;20112;-60
2023/06/28 15:14:28;;;;;;;2.80;1.48;;;31.30;54.80;;;;;;10052321;28;20029;-61
2023/06/28 15:19:19;;;;;;;1.70;1.30;;;31.40;55.00;;;;;;10077576;28;20032;-61
2023/06/28 15:24:10;;;;;;;2.35;1.65;;;31.90;54.30;;;;;;10069404;28;20286;-60
2023/06/28 15:29:01;;;;;;;2.13;1.83;;;32.80;53.80;;;;;;10066698;28;20035;-61
2023/06/28 15:33:51;;;;;;;2.67;1.57;;;33.80;53.10;;;;;;10069594;28;20108;-60
2023/06/28 15:38:42;;;;;;;1.77;1.50;;;35.50;51.80;;;;;;10079019;28;20124;-59
2023/06/28 15:43:32;;;;;;;2.40;1.37;;;36.40;51.10;;;;;;10078813;28;20041;-59
2023/06/28 15:48:23;;;;;;;1.90;1.70;;;37.10;50.60;;;;;;10076182;28;20033;-58
2023/06/28 15:53:14;;;;;;;3.85;1.65;;;37.70;49.70;;;;;;10078600;28;20483;-60
2023/06/28 15:58:04;;;;;;;3.05;1.23;;;37.50;49.30;;;;;;10062774;28;20036;-61
2023/06/28 16:02:55;;;;;;;4.80;1.40;;;37.80;48.70;;;;;;10067402;28;20049;-60
2023/06/28 16:07:47;;;;;;;1.60;1.13;;;38.20;48.30;;;;;;10054960;28;20292;-60
2023/06/28 16:12:38;;;;;;;3.80;1.35;;;39.10;47.40;;;;;;10073425;28;20043;-60
2023/06/28 16:17:29;;;;;;;4.63;1.38;;;40.10;46.60;;;;;;10065852;28;20099;-60
2023/06/28 16:22:20;;;;;;;4.57;1.58;;;40.00;46.30;;;;;;10065456;28;20041;-60
2023/06/28 16:27:11;;;;;;;4.10;1.60;;;40.20;45.80;;;;;;10066436;28;20029;-59
2023/06/28 16:32:01;;;;;;;1.95;1.40;;;41.30;44.70;;;;;;10063296;28;20203;-59
2023/06/28 16:36:52;;;;;;;2.90;1.50;;;40.90;44.50;;;;;;10054693;28;20589;-59
2023/06/28 16:41:42;;;;;;;5.22;1.38;;;42.80;43.60;;;;;;10072393;28;20041;-59
2023/06/28 16:46:33;;;;;;;2.33;1.90;;;43.30;43.20;;;;;;10072962;28;20383;-59
2023/06/28 16:51:24;;;;;;;2.03;1.45;;;42.00;43.50;;;;;;10076335;28;20158;-58
2023/06/28 16:56:14;;;;;;;2.08;1.38;;;42.40;43.30;;;;;;10061247;28;20033;-60
2023/06/28 17:01:05;;;;;;;4.63;1.85;;;41.30;43.50;;;;;;10050358;28;20033;-60
2023/06/28 17:05:57;;;;;;;2.88;1.38;;;42.30;42.80;;;;;;10059662;28;21120;-60
2023/06/28 17:10:48;;;;;;;2.28;1.63;;;41.70;43.10;;;;;;10071174;28;20025;-60
2023/06/28 17:15:38;;;;;;;2.65;1.30;;;42.10;42.80;;;;;;10071671;28;20040;-62
2023/06/28 17:20:29;;;;;;;2.50;1.48;;;41.30;42.90;;;;;;10061421;28;20048;-62
2023/06/28 17:25:20;;;;;;;4.00;1.55;;;41.20;43.10;;;;;;10060271;28;20021;-61
2023/06/28 17:30:11;;;;;;;2.33;1.38;;;41.30;42.90;;;;;;10054209;28;20033;-60
2023/06/28 17:35:02;;;;;;;3.33;1.50;;;40.10;43.40;;;;;;10062821;28;20040;-59
2023/06/28 17:39:54;;;;;;;3.88;1.45;;;38.80;44.10;;;;;;10062396;28;20419;-61
2023/06/28 17:44:44;;;;;;;1.90;1.60;;;37.80;44.50;;;;;;10057851;28;20021;-60
2023/06/28 17:49:35;;;;;;;;;;;37.50;45.00;;;;;;10039413;28;20470;-60
2023/06/28 17:54:25;;;;;;;4.37;1.93;;;37.50;45.30;;;;;;10063593;28;19909;-60
2023/06/28 17:59:16;;;;;;;;;;;37.40;45.70;;;;;;10056714;28;20431;-63
2023/06/28 18:04:07;;;;;;;4.28;1.65;;;36.90;46.20;;;;;;10057816;28;19917;-60
2023/06/28 18:08:57;;;;;;;4.25;1.58;;;35.50;47.20;;;;;;10073360;28;20044;-60
2023/06/28 18:13:48;;;;;;;4.18;1.67;;;33.50;48.50;;;;;;10075423;28;20040;-59
2023/06/28 18:18:39;;;;;;;5.38;2.22;;;32.00;49.30;;;;;;10067968;28;20136;-60
2023/06/28 18:23:29;;;;;;;3.72;2.20;;;31.30;49.80;;;;;;10061961;28;20108;-59
2023/06/28 18:28:20;;;;;;;5.25;2.20;;;30.70;50.10;;;;;;10055760;28;20120;-60
2023/06/28 18:33:11;;;;;;;3.53;1.98;;;30.40;50.40;;;;;;10051428;28;20037;-60
2023/06/28 18:38:03;;;;;;;2.35;1.60;;;30.10;51.00;;;;;;10062503;28;20102;-60
2023/06/28 18:42:54;;;;;;;3.22;1.70;;;29.90;51.20;;;;;;10052387;28;20076;-58
2023/06/28 18:47:45;;;;;;;2.95;1.70;;;29.60;51.60;;;;;;10033896;28;20022;-58
2023/06/28 18:52:35;;;;;;;4.80;1.75;;;29.40;52.10;;;;;;10047962;28;20095;-60
2023/06/28 18:57:26;;;;;;;6.30;2.42;;;29.30;52.50;;;;;;10044990;28;20036;-55
2023/06/28 19:02:17;;;;;;;3.05;1.58;;;29.20;53.00;;;;;;10055657;28;20065;-56
2023/06/28 19:07:07;;;;;;;4.32;2.67;;;29.10;53.10;;;;;;10064226;28;20029;-53
2023/06/28 19:11:58;;;;;;;5.78;1.80;;;28.90;53.60;;;;;;10074094;28;20648;-56
2023/06/28 19:16:48;;;;;;;3.35;2.10;;;28.80;53.80;;;;;;10070470;28;20083;-56
2023/06/28 19:21:39;;;;;;;3.33;1.80;;;28.80;54.00;;;;;;10073116;28;20052;-57
2023/06/28 19:26:30;;;;;;;5.45;3.40;;;28.80;54.20;;;;;;10066627;28;20498;-56
2023/06/28 19:31:20;;;;;;;5.95;3.20;;;28.70;54.60;;;;;;10073710;28;20034;-57
2023/06/28 19:36:11;;;;;;;4.35;3.20;;;28.60;54.70;;;;;;10083271;28;20407;-53
2023/06/28 19:41:02;;;;;;;3.47;2.30;;;28.50;55.00;;;;;;10091843;28;20033;-56
2023/06/28 19:45:53;;;;;;;4.47;2.50;;;28.50;55.20;;;;;;10074653;28;20034;-58
2023/06/28 19:50:43;;;;;;;5.03;3.08;;;28.30;55.50;;;;;;10073586;28;20029;-58
2023/06/28 19:55:34;;;;;;;4.47;2.97;;;28.30;55.70;;;;;;10069491;28;20017;-59
2023/06/28 20:00:25;;;;;;;8.75;2.55;;;28.20;55.90;;;;;;10063131;28;20095;-58
2023/06/28 20:05:19;;;;;;;4.63;2.60;;;28.10;56.10;;;;;;10051557;28;20130;-60
2023/06/28 20:10:10;;;;;;;3.08;2.35;;;28.00;56.40;;;;;;10065841;28;20245;-60
2023/06/28 20:15:04;;;;;;;4.78;2.55;;;27.80;56.60;;;;;;10066998;28;20228;-60
2023/06/28 20:19:54;;;;;;;5.47;2.47;;;28.00;56.80;;;;;;10060531;28;20037;-60
2023/06/28 20:24:45;;;;;;;4.28;2.50;;;27.90;57.10;;;;;;10064413;28;20029;-56
2023/06/28 20:29:36;;;;;;;10.98;4.32;;;27.70;57.30;;;;;;10057034;28;20039;-61
2023/06/28 20:34:26;;;;;;;5.30;3.00;;;27.60;57.70;;;;;;10055773;28;20033;-60
2023/06/28 20:39:17;;;;;;;4.65;2.00;;;27.40;57.80;;;;;;10058040;28;20041;-61
2023/06/28 20:44:07;;;;;;;3.65;1.88;;;27.30;57.90;;;;;;10042845;28;20041;-59
2023/06/28 20:48:58;;;;;;;3.60;1.90;;;27.30;57.90;;;;;;10054868;28;20116;-60
2023/06/28 20:53:49;;;;;;;4.75;1.90;;;27.30;57.90;;;;;;10057337;28;20487;-58
2023/06/28 20:58:41;;;;;;;5.28;3.20;;;27.40;58.00;;;;;;10053108;28;20030;-59
2023/06/28 21:03:32;;;;;;;3.17;1.92;;;27.30;58.10;;;;;;10052070;28;20049;-60
2023/06/28 21:08:23;;;;;;;2.53;2.00;;;27.20;58.20;;;;;;10054431;28;20506;-57
2023/06/28 21:13:14;;;;;;;3.03;1.77;;;27.20;58.20;;;;;;10048035;28;20467;-57
2023/06/28 21:18:07;;;;;;;3.78;1.67;;;27.10;58.40;;;;;;10071995;28;20111;-58
2023/06/28 21:22:57;;;;;;;5.72;2.20;;;27.10;58.60;;;;;;10064809;28;20045;-58
2023/06/28 21:27:48;;;;;;;4.63;2.10;;;27.10;58.80;;;;;;10062306;28;20152;-59
2023/06/28 21:32:39;;;;;;;2.15;1.70;;;27.00;58.80;;;;;;10057777;28;20439;-57
2023/06/28 21:37:29;;;;;;;2.92;1.50;;;26.90;58.90;;;;;;10065113;28;20084;-60
2023/06/28 21:42:20;;;;;;;3.05;2.10;;;26.90;58.90;;;;;;10072917;28;20114;-57
2023/06/28 21:47:11;;;;;;;2.88;1.90;;;26.70;59.10;;;;;;10067253;28;20030;-58
2023/06/28 21:52:01;;;;;;;3.15;1.95;;;26.60;59.30;;;;;;10068606;28;20036;-59
2023/06/28 21:56:53;;;;;;;3.90;1.77;;;26.50;59.30;;;;;;10059150;28;20037;-50
2023/06/28 22:01:44;;;;;;;2.22;1.58;;;26.30;59.80;;;;;;10057532;28;20507;-53
2023/06/28 22:06:35;;;;;;;4.75;1.60;;;26.20;59.70;;;;;;10064854;28;20593;-57
2023/06/28 22:11:27;;;;;;;2.85;2.30;;;26.00;59.90;;;;;;10080802;28;20025;-56
2023/06/28 22:16:18;;;;;;;3.17;1.63;;;26.00;60.10;;;;;;10070462;28;20029;-53
2023/06/28 22:21:08;;;;;;;2.78;1.40;;;25.90;60.40;;;;;;10069277;28;20045;-53
2023/06/28 22:25:59;;;;;;;2.70;1.55;;;26.00;60.50;;;;;;10062562;28;20045;-55
2023/06/28 22:30:50;;;;;;;3.08;1.80;;;26.00;60.60;;;;;;10062243;28;20049;-52
2023/06/28 22:35:40;;;;;;;3.35;1.73;;;26.00;60.80;;;;;;10077696;28;20098;-53
2023/06/28 22:40:31;;;;;;;2.92;1.60;;;25.90;61.10;;;;;;10062531;28;20037;-53
2023/06/28 22:45:22;;;;;;;3.35;1.58;;;26.00;61.20;;;;;;10073816;28;20505;-53
2023/06/28 22:50:12;;;;;;;3.30;1.45;;;26.00;61.50;;;;;;10074447;28;20098;-53
2023/06/28 22:55:04;;;;;;;3.13;1.90;;;26.00;61.70;;;;;;10053291;28;20466;-51
2023/06/28 22:59:54;;;;;;;2.45;1.92;;;25.80;62.00;;;;;;10056374;28;20029;-51
2023/06/28 23:04:45;;;;;;;3.97;1.40;;;25.70;62.30;;;;;;10068508;28;20140;-54
2023/06/28 23:09:35;;;;;;;3.50;1.70;;;25.60;62.50;;;;;;10081474;28;20544;-53
2023/06/28 23:14:26;;;;;;;4.53;2.97;;;25.50;62.70;;;;;;10083321;28;20033;-55
2023/06/28 23:19:17;;;;;;;2.75;1.70;;;25.50;62.80;;;;;;10077901;28;20121;-54
2023/06/28 23:24:08;;;;;;;6.15;2.22;;;25.40;63.00;;;;;;10067742;28;20453;-55
2023/06/28 23:28:59;;;;;;;4.95;2.28;;;25.30;63.30;;;;;;10067290;28;20042;-53
2023/06/28 23:33:51;;;;;;;3.95;2.72;;;25.10;63.70;;;;;;10071992;28;20055;-51
2023/06/28 23:38:41;;;;;;;8.18;4.80;;;25.20;64.00;;;;;;10078888;28;20033;-54
2023/06/28 23:43:32;;;;;;;10.20;4.95;;;25.10;64.20;;;;;;10074592;28;20096;-54
2023/06/28 23:48:24;;;;;;;11.88;6.63;;;25.00;64.60;;;;;;10082669;28;20423;-50
2023/06/28 23:53:16;;;;;;;6.32;4.78;;;24.90;64.80;;;;;;10063599;28;20033;-53
2023/06/28 23:58:06;;;;;;;5.72;4.22;;;24.70;65.30;;;;;;10062036;28;20034;-52
